sensor_id;sensor_type;location;lat;lon;timestamp;temperature;humidity
19242;DHT22;9755;47.790;9.620;2023-06-14T00:01:14;10.70;31.60
19242;DHT22;9755;47.790;9.620;2023-06-14T00:03:41;10.80;31.50
19242;DHT22;9755;47.790;9.620;2023-06-14T00:06:09;10.90;31.50
19242;DHT22;9755;47.790;9.620;2023-06-14T00:08:37;11.00;31.70
19242;DHT22;9755;47.790;9.620;2023-06-14T00:11:04;11.00;31.80
19242;DHT22;9755;47.790;9.620;2023-06-14T00:13:31;11.10;31.50
19242;DHT22;9755;47.790;9.620;2023-06-14T00:15:58;11.10;31.10
19242;DHT22;9755;47.790;9.620;2023-06-14T00:18:25;11.10;31.80
19242;DHT22;9755;47.790;9.620;2023-06-14T00:20:55;10.90;33.20
19242;DHT22;9755;47.790;9.620;2023-06-14T00:23:24;10.80;35.20
19242;DHT22;9755;47.790;9.620;2023-06-14T00:25:51;10.70;37.20
19242;DHT22;9755;47.790;9.620;2023-06-14T00:28:18;10.70;37.00
19242;DHT22;9755;47.790;9.620;2023-06-14T00:30:46;10.60;38.20
19242;DHT22;9755;47.790;9.620;2023-06-14T00:33:13;10.50;40.00
19242;DHT22;9755;47.790;9.620;2023-06-14T00:35:40;10.30;42.40
19242;DHT22;9755;47.790;9.620;2023-06-14T00:38:07;10.20;45.40
19242;DHT22;9755;47.790;9.620;2023-06-14T00:40:36;10.00;50.60
19242;DHT22;9755;47.790;9.620;2023-06-14T00:43:03;9.90;56.10
19242;DHT22;9755;47.790;9.620;2023-06-14T00:45:30;10.00;59.70
19242;DHT22;9755;47.790;9.620;2023-06-14T00:48:02;10.00;61.40
19242;DHT22;9755;47.790;9.620;2023-06-14T00:50:29;9.90;64.20
19242;DHT22;9755;47.790;9.620;2023-06-14T00:52:57;9.90;66.10
19242;DHT22;9755;47.790;9.620;2023-06-14T00:55:25;9.80;68.40
19242;DHT22;9755;47.790;9.620;2023-06-14T00:57:54;9.80;71.40
19242;DHT22;9755;47.790;9.620;2023-06-14T01:00:21;9.70;74.50
19242;DHT22;9755;47.790;9.620;2023-06-14T01:02:48;9.70;74.60
19242;DHT22;9755;47.790;9.620;2023-06-14T01:05:17;9.60;78.10
19242;DHT22;9755;47.790;9.620;2023-06-14T01:07:55;9.50;79.60
19242;DHT22;9755;47.790;9.620;2023-06-14T01:10:35;9.40;82.60
19242;DHT22;9755;47.790;9.620;2023-06-14T01:13:11;9.20;89.60
19242;DHT22;9755;47.790;9.620;2023-06-14T01:15:40;9.30;90.40
19242;DHT22;9755;47.790;9.620;2023-06-14T01:18:09;9.30;91.90
19242;DHT22;9755;47.790;9.620;2023-06-14T01:20:43;9.20;91.20
19242;DHT22;9755;47.790;9.620;2023-06-14T01:23:16;9.20;93.30
19242;DHT22;9755;47.790;9.620;2023-06-14T01:25:43;9.10;93.50
19242;DHT22;9755;47.790;9.620;2023-06-14T01:28:11;9.00;94.30
19242;DHT22;9755;47.790;9.620;2023-06-14T01:30:40;8.90;96.10
19242;DHT22;9755;47.790;9.620;2023-06-14T01:33:12;8.80;98.30
19242;DHT22;9755;47.790;9.620;2023-06-14T01:35:40;8.80;98.80
19242;DHT22;9755;47.790;9.620;2023-06-14T01:38:07;8.70;99.50
19242;DHT22;9755;47.790;9.620;2023-06-14T01:40:36;8.60;99.90
19242;DHT22;9755;47.790;9.620;2023-06-14T01:43:04;8.60;99.90
19242;DHT22;9755;47.790;9.620;2023-06-14T01:45:33;8.70;99.90
19242;DHT22;9755;47.790;9.620;2023-06-14T01:48:01;8.70;99.90
19242;DHT22;9755;47.790;9.620;2023-06-14T01:50:28;8.70;99.90
19242;DHT22;9755;47.790;9.620;2023-06-14T01:52:56;8.60;99.90
19242;DHT22;9755;47.790;9.620;2023-06-14T01:55:23;8.50;99.90
19242;DHT22;9755;47.790;9.620;2023-06-14T01:57:53;8.40;99.90
19242;DHT22;9755;47.790;9.620;2023-06-14T02:00:20;8.30;99.90
19242;DHT22;9755;47.790;9.620;2023-06-14T02:02:47;8.30;99.90
19242;DHT22;9755;47.790;9.620;2023-06-14T02:05:15;8.20;99.90
19242;DHT22;9755;47.790;9.620;2023-06-14T02:07:44;8.10;99.90
19242;DHT22;9755;47.790;9.620;2023-06-14T02:10:12;8.00;99.90
19242;DHT22;9755;47.790;9.620;2023-06-14T02:12:39;7.90;99.90
19242;DHT22;9755;47.790;9.620;2023-06-14T02:15:09;7.90;99.90
19242;DHT22;9755;47.790;9.620;2023-06-14T02:17:42;7.90;99.90
19242;DHT22;9755;47.790;9.620;2023-06-14T02:20:10;7.90;99.90
19242;DHT22;9755;47.790;9.620;2023-06-14T02:22:37;8.00;99.90
19242;DHT22;9755;47.790;9.620;2023-06-14T02:25:04;8.00;99.90
19242;DHT22;9755;47.790;9.620;2023-06-14T02:27:32;8.00;99.90
19242;DHT22;9755;47.790;9.620;2023-06-14T02:29:59;8.10;99.90
19242;DHT22;9755;47.790;9.620;2023-06-14T02:32:28;8.30;99.90
19242;DHT22;9755;47.790;9.620;2023-06-14T02:34:55;8.40;99.90
19242;DHT22;9755;47.790;9.620;2023-06-14T02:37:22;8.40;99.90
19242;DHT22;9755;47.790;9.620;2023-06-14T02:39:49;8.50;99.90
19242;DHT22;9755;47.790;9.620;2023-06-14T02:42:16;8.60;99.90
19242;DHT22;9755;47.790;9.620;2023-06-14T02:44:43;8.50;99.90
19242;DHT22;9755;47.790;9.620;2023-06-14T02:47:12;8.40;99.90
19242;DHT22;9755;47.790;9.620;2023-06-14T02:49:40;8.30;99.90
19242;DHT22;9755;47.790;9.620;2023-06-14T02:52:07;8.20;99.90
19242;DHT22;9755;47.790;9.620;2023-06-14T02:54:34;8.30;99.90
19242;DHT22;9755;47.790;9.620;2023-06-14T02:57:02;8.20;99.90
19242;DHT22;9755;47.790;9.620;2023-06-14T02:59:29;8.10;99.90
19242;DHT22;9755;47.790;9.620;2023-06-14T03:01:56;7.90;99.90
19242;DHT22;9755;47.790;9.620;2023-06-14T03:04:23;7.90;99.90
19242;DHT22;9755;47.790;9.620;2023-06-14T03:06:52;7.70;99.90
19242;DHT22;9755;47.790;9.620;2023-06-14T03:09:21;7.80;99.90
19242;DHT22;9755;47.790;9.620;2023-06-14T03:11:48;7.70;99.90
19242;DHT22;9755;47.790;9.620;2023-06-14T03:14:15;7.50;99.90
19242;DHT22;9755;47.790;9.620;2023-06-14T03:16:43;7.30;99.90
19242;DHT22;9755;47.790;9.620;2023-06-14T03:19:10;7.30;99.90
19242;DHT22;9755;47.790;9.620;2023-06-14T03:21:37;7.40;99.90
19242;DHT22;9755;47.790;9.620;2023-06-14T03:24:10;7.40;99.90
19242;DHT22;9755;47.790;9.620;2023-06-14T03:26:37;7.60;99.90
19242;DHT22;9755;47.790;9.620;2023-06-14T03:29:04;7.70;99.90
19242;DHT22;9755;47.790;9.620;2023-06-14T03:31:31;7.80;99.90
19242;DHT22;9755;47.790;9.620;2023-06-14T03:33:59;7.90;99.90
19242;DHT22;9755;47.790;9.620;2023-06-14T03:36:26;8.00;99.90
19242;DHT22;9755;47.790;9.620;2023-06-14T03:38:53;8.10;99.90
19242;DHT22;9755;47.790;9.620;2023-06-14T03:41:22;8.10;99.90
19242;DHT22;9755;47.790;9.620;2023-06-14T03:43:49;8.30;99.90
19242;DHT22;9755;47.790;9.620;2023-06-14T03:46:16;8.50;99.90
19242;DHT22;9755;47.790;9.620;2023-06-14T03:48:43;8.60;99.90
19242;DHT22;9755;47.790;9.620;2023-06-14T03:51:10;8.80;99.90
19242;DHT22;9755;47.790;9.620;2023-06-14T03:53:37;8.80;99.90
19242;DHT22;9755;47.790;9.620;2023-06-14T03:56:04;8.90;99.90
19242;DHT22;9755;47.790;9.620;2023-06-14T03:58:34;9.10;99.90
19242;DHT22;9755;47.790;9.620;2023-06-14T04:01:01;9.10;99.90
19242;DHT22;9755;47.790;9.620;2023-06-14T04:03:28;9.10;99.90
19242;DHT22;9755;47.790;9.620;2023-06-14T04:05:55;9.30;99.90
19242;DHT22;9755;47.790;9.620;2023-06-14T04:08:25;9.50;99.90
19242;DHT22;9755;47.790;9.620;2023-06-14T04:10:52;9.80;99.90
19242;DHT22;9755;47.790;9.620;2023-06-14T04:13:19;10.20;98.50
19242;DHT22;9755;47.790;9.620;2023-06-14T04:15:47;10.70;96.70
19242;DHT22;9755;47.790;9.620;2023-06-14T04:18:14;11.30;93.70
19242;DHT22;9755;47.790;9.620;2023-06-14T04:20:42;12.00;87.80
19242;DHT22;9755;47.790;9.620;2023-06-14T04:23:12;12.60;81.10
19242;DHT22;9755;47.790;9.620;2023-06-14T04:25:39;13.20;73.80
19242;DHT22;9755;47.790;9.620;2023-06-14T04:28:11;13.70;68.00
19242;DHT22;9755;47.790;9.620;2023-06-14T04:30:38;14.20;61.10
19242;DHT22;9755;47.790;9.620;2023-06-14T04:33:07;14.50;57.80
19242;DHT22;9755;47.790;9.620;2023-06-14T04:35:35;14.50;56.80
19242;DHT22;9755;47.790;9.620;2023-06-14T04:38:03;14.80;54.10
19242;DHT22;9755;47.790;9.620;2023-06-14T04:40:35;15.30;50.70
19242;DHT22;9755;47.790;9.620;2023-06-14T04:43:08;15.80;46.00
19242;DHT22;9755;47.790;9.620;2023-06-14T04:45:38;16.10;43.40
19242;DHT22;9755;47.790;9.620;2023-06-14T04:48:07;16.60;41.20
19242;DHT22;9755;47.790;9.620;2023-06-14T04:50:34;17.10;36.60
19242;DHT22;9755;47.790;9.620;2023-06-14T04:53:01;17.30;34.10
19242;DHT22;9755;47.790;9.620;2023-06-14T04:55:28;17.60;30.50
19242;DHT22;9755;47.790;9.620;2023-06-14T04:57:56;17.50;29.40
19242;DHT22;9755;47.790;9.620;2023-06-14T05:00:23;17.70;28.70
19242;DHT22;9755;47.790;9.620;2023-06-14T05:02:50;18.20;27.00
19242;DHT22;9755;47.790;9.620;2023-06-14T05:05:20;18.40;25.50
19242;DHT22;9755;47.790;9.620;2023-06-14T05:07:47;18.80;25.60
19242;DHT22;9755;47.790;9.620;2023-06-14T05:10:14;18.80;23.40
19242;DHT22;9755;47.790;9.620;2023-06-14T05:12:41;18.90;23.40
19242;DHT22;9755;47.790;9.620;2023-06-14T05:15:09;19.00;22.80
19242;DHT22;9755;47.790;9.620;2023-06-14T05:17:37;19.30;22.20
19242;DHT22;9755;47.790;9.620;2023-06-14T05:20:07;19.60;21.00
19242;DHT22;9755;47.790;9.620;2023-06-14T05:22:37;19.20;19.50
19242;DHT22;9755;47.790;9.620;2023-06-14T05:25:04;20.00;19.70
19242;DHT22;9755;47.790;9.620;2023-06-14T05:27:31;20.60;17.70
19242;DHT22;9755;47.790;9.620;2023-06-14T05:30:01;21.00;15.20
19242;DHT22;9755;47.790;9.620;2023-06-14T05:32:29;20.80;13.60
19242;DHT22;9755;47.790;9.620;2023-06-14T05:34:56;21.10;13.90
19242;DHT22;9755;47.790;9.620;2023-06-14T05:37:24;21.90;12.90
19242;DHT22;9755;47.790;9.620;2023-06-14T05:39:52;22.20;10.60
19242;DHT22;9755;47.790;9.620;2023-06-14T05:42:19;21.90;10.20
19242;DHT22;9755;47.790;9.620;2023-06-14T05:44:46;22.00;10.20
19242;DHT22;9755;47.790;9.620;2023-06-14T05:47:13;22.40;8.90
19242;DHT22;9755;47.790;9.620;2023-06-14T05:49:40;23.00;7.80
19242;DHT22;9755;47.790;9.620;2023-06-14T05:52:09;23.40;6.50
19242;DHT22;9755;47.790;9.620;2023-06-14T05:54:38;23.10;6.00
19242;DHT22;9755;47.790;9.620;2023-06-14T05:57:08;23.10;5.90
19242;DHT22;9755;47.790;9.620;2023-06-14T05:59:36;23.10;4.60
19242;DHT22;9755;47.790;9.620;2023-06-14T06:02:03;22.80;4.90
19242;DHT22;9755;47.790;9.620;2023-06-14T06:04:30;22.60;4.90
19242;DHT22;9755;47.790;9.620;2023-06-14T06:06:57;22.60;5.00
19242;DHT22;9755;47.790;9.620;2023-06-14T06:09:24;22.80;4.80
19242;DHT22;9755;47.790;9.620;2023-06-14T06:11:51;22.80;4.30
19242;DHT22;9755;47.790;9.620;2023-06-14T06:14:20;22.90;4.40
19242;DHT22;9755;47.790;9.620;2023-06-14T06:16:47;23.30;3.80
19242;DHT22;9755;47.790;9.620;2023-06-14T06:19:14;23.80;3.50
19242;DHT22;9755;47.790;9.620;2023-06-14T06:21:41;23.90;2.80
19242;DHT22;9755;47.790;9.620;2023-06-14T06:24:08;23.80;2.70
19242;DHT22;9755;47.790;9.620;2023-06-14T06:26:36;24.00;2.70
19242;DHT22;9755;47.790;9.620;2023-06-14T06:29:04;24.60;2.30
19242;DHT22;9755;47.790;9.620;2023-06-14T06:31:33;24.90;2.40
19242;DHT22;9755;47.790;9.620;2023-06-14T06:34:00;24.70;1.20
19242;DHT22;9755;47.790;9.620;2023-06-14T06:36:27;25.20;1.00
19242;DHT22;9755;47.790;9.620;2023-06-14T06:38:54;25.50;1.00
19242;DHT22;9755;47.790;9.620;2023-06-14T06:41:21;24.90;1.00
19242;DHT22;9755;47.790;9.620;2023-06-14T06:43:48;25.50;1.00
19242;DHT22;9755;47.790;9.620;2023-06-14T06:46:15;27.00;1.00
19242;DHT22;9755;47.790;9.620;2023-06-14T06:48:45;27.60;1.00
19242;DHT22;9755;47.790;9.620;2023-06-14T06:51:12;27.70;1.00
19242;DHT22;9755;47.790;9.620;2023-06-14T06:53:41;27.70;1.00
19242;DHT22;9755;47.790;9.620;2023-06-14T06:56:08;28.00;1.00
19242;DHT22;9755;47.790;9.620;2023-06-14T06:58:35;28.40;1.00
19242;DHT22;9755;47.790;9.620;2023-06-14T07:01:02;28.70;1.00
19242;DHT22;9755;47.790;9.620;2023-06-14T07:03:30;29.50;1.00
19242;DHT22;9755;47.790;9.620;2023-06-14T07:05:58;29.70;1.00
19242;DHT22;9755;47.790;9.620;2023-06-14T07:08:25;29.70;1.00
19242;DHT22;9755;47.790;9.620;2023-06-14T07:10:55;28.70;1.00
19242;DHT22;9755;47.790;9.620;2023-06-14T07:13:22;29.20;1.00
19242;DHT22;9755;47.790;9.620;2023-06-14T07:15:49;29.90;1.00
19242;DHT22;9755;47.790;9.620;2023-06-14T07:18:18;30.70;1.00
19242;DHT22;9755;47.790;9.620;2023-06-14T07:20:45;30.60;1.00
19242;DHT22;9755;47.790;9.620;2023-06-14T07:23:14;31.20;1.00
19242;DHT22;9755;47.790;9.620;2023-06-14T07:25:42;31.20;1.00
19242;DHT22;9755;47.790;9.620;2023-06-14T07:28:09;29.90;1.00
19242;DHT22;9755;47.790;9.620;2023-06-14T07:30:36;30.00;1.00
19242;DHT22;9755;47.790;9.620;2023-06-14T07:33:03;31.00;1.00
19242;DHT22;9755;47.790;9.620;2023-06-14T07:35:30;31.70;1.00
19242;DHT22;9755;47.790;9.620;2023-06-14T07:37:57;32.10;1.00
19242;DHT22;9755;47.790;9.620;2023-06-14T07:40:25;32.40;1.00
19242;DHT22;9755;47.790;9.620;2023-06-14T07:42:53;32.20;1.00
19242;DHT22;9755;47.790;9.620;2023-06-14T07:45:20;32.40;1.00
19242;DHT22;9755;47.790;9.620;2023-06-14T07:47:47;32.40;1.00
19242;DHT22;9755;47.790;9.620;2023-06-14T07:50:15;32.60;1.00
19242;DHT22;9755;47.790;9.620;2023-06-14T07:52:43;32.60;1.00
19242;DHT22;9755;47.790;9.620;2023-06-14T07:55:10;33.00;1.00
19242;DHT22;9755;47.790;9.620;2023-06-14T07:57:40;33.70;1.00
19242;DHT22;9755;47.790;9.620;2023-06-14T08:00:09;33.80;1.00
19242;DHT22;9755;47.790;9.620;2023-06-14T08:02:41;33.90;1.00
19242;DHT22;9755;47.790;9.620;2023-06-14T08:05:09;32.70;1.00
19242;DHT22;9755;47.790;9.620;2023-06-14T08:07:36;32.30;1.00
19242;DHT22;9755;47.790;9.620;2023-06-14T08:10:04;32.10;1.00
19242;DHT22;9755;47.790;9.620;2023-06-14T08:12:31;33.00;1.00
19242;DHT22;9755;47.790;9.620;2023-06-14T08:14:59;31.90;1.00
19242;DHT22;9755;47.790;9.620;2023-06-14T08:17:26;32.30;1.00
19242;DHT22;9755;47.790;9.620;2023-06-14T08:19:53;31.80;1.00
19242;DHT22;9755;47.790;9.620;2023-06-14T08:22:22;30.60;1.00
19242;DHT22;9755;47.790;9.620;2023-06-14T08:24:51;30.70;1.00
19242;DHT22;9755;47.790;9.620;2023-06-14T08:27:19;31.70;1.00
19242;DHT22;9755;47.790;9.620;2023-06-14T08:29:46;32.00;1.00
19242;DHT22;9755;47.790;9.620;2023-06-14T08:32:15;31.60;1.00
19242;DHT22;9755;47.790;9.620;2023-06-14T08:34:42;31.40;1.00
19242;DHT22;9755;47.790;9.620;2023-06-14T08:37:09;31.50;1.00
19242;DHT22;9755;47.790;9.620;2023-06-14T08:39:36;31.80;1.00
19242;DHT22;9755;47.790;9.620;2023-06-14T08:42:04;31.50;1.00
19242;DHT22;9755;47.790;9.620;2023-06-14T08:44:32;31.60;1.00
19242;DHT22;9755;47.790;9.620;2023-06-14T08:47:00;30.50;1.00
19242;DHT22;9755;47.790;9.620;2023-06-14T08:49:31;30.70;1.00
19242;DHT22;9755;47.790;9.620;2023-06-14T08:52:00;30.90;1.00
19242;DHT22;9755;47.790;9.620;2023-06-14T08:54:28;31.60;1.00
19242;DHT22;9755;47.790;9.620;2023-06-14T08:56:56;31.90;1.00
19242;DHT22;9755;47.790;9.620;2023-06-14T08:59:25;31.80;1.00
19242;DHT22;9755;47.790;9.620;2023-06-14T09:01:53;30.30;1.00
19242;DHT22;9755;47.790;9.620;2023-06-14T09:04:20;30.60;1.00
19242;DHT22;9755;47.790;9.620;2023-06-14T09:06:49;31.60;1.00
19242;DHT22;9755;47.790;9.620;2023-06-14T09:09:19;32.50;1.00
19242;DHT22;9755;47.790;9.620;2023-06-14T09:11:46;30.50;1.00
19242;DHT22;9755;47.790;9.620;2023-06-14T09:14:13;30.70;1.00
19242;DHT22;9755;47.790;9.620;2023-06-14T09:16:41;30.00;1.00
19242;DHT22;9755;47.790;9.620;2023-06-14T09:19:08;30.20;1.00
19242;DHT22;9755;47.790;9.620;2023-06-14T09:21:35;29.30;1.00
19242;DHT22;9755;47.790;9.620;2023-06-14T09:24:05;30.40;1.00
19242;DHT22;9755;47.790;9.620;2023-06-14T09:26:32;30.60;1.00
19242;DHT22;9755;47.790;9.620;2023-06-14T09:28:59;30.50;1.00
19242;DHT22;9755;47.790;9.620;2023-06-14T09:31:26;28.90;1.00
19242;DHT22;9755;47.790;9.620;2023-06-14T09:33:57;28.90;1.00
19242;DHT22;9755;47.790;9.620;2023-06-14T09:36:25;29.20;1.00
19242;DHT22;9755;47.790;9.620;2023-06-14T09:38:53;29.90;1.00
19242;DHT22;9755;47.790;9.620;2023-06-14T09:41:30;30.10;1.00
19242;DHT22;9755;47.790;9.620;2023-06-14T09:43:58;30.70;1.00
19242;DHT22;9755;47.790;9.620;2023-06-14T09:46:27;30.10;1.00
19242;DHT22;9755;47.790;9.620;2023-06-14T09:48:54;30.10;1.00
19242;DHT22;9755;47.790;9.620;2023-06-14T09:51:22;30.20;1.00
19242;DHT22;9755;47.790;9.620;2023-06-14T09:53:50;30.60;1.00
19242;DHT22;9755;47.790;9.620;2023-06-14T09:56:22;30.80;1.00
19242;DHT22;9755;47.790;9.620;2023-06-14T09:58:54;30.60;1.00
19242;DHT22;9755;47.790;9.620;2023-06-14T10:01:23;30.40;1.00
19242;DHT22;9755;47.790;9.620;2023-06-14T10:03:55;30.10;1.00
19242;DHT22;9755;47.790;9.620;2023-06-14T10:06:23;29.70;1.00
19242;DHT22;9755;47.790;9.620;2023-06-14T10:08:52;29.80;1.00
19242;DHT22;9755;47.790;9.620;2023-06-14T10:11:23;29.60;1.00
19242;DHT22;9755;47.790;9.620;2023-06-14T10:13:52;30.70;1.00
19242;DHT22;9755;47.790;9.620;2023-06-14T10:16:23;31.10;1.00
19242;DHT22;9755;47.790;9.620;2023-06-14T10:18:58;31.40;1.00
19242;DHT22;9755;47.790;9.620;2023-06-14T10:21:33;31.10;1.00
19242;DHT22;9755;47.790;9.620;2023-06-14T10:24:06;30.00;1.00
19242;DHT22;9755;47.790;9.620;2023-06-14T10:26:35;29.80;1.00
19242;DHT22;9755;47.790;9.620;2023-06-14T10:29:07;29.50;1.00
19242;DHT22;9755;47.790;9.620;2023-06-14T10:31:42;29.50;1.00
19242;DHT22;9755;47.790;9.620;2023-06-14T10:34:10;30.80;1.00
19242;DHT22;9755;47.790;9.620;2023-06-14T10:36:39;30.70;1.00
19242;DHT22;9755;47.790;9.620;2023-06-14T10:39:09;31.30;1.00
19242;DHT22;9755;47.790;9.620;2023-06-14T10:41:39;29.40;1.00
19242;DHT22;9755;47.790;9.620;2023-06-14T10:46:59;29.20;1.00
19242;DHT22;9755;47.790;9.620;2023-06-14T10:49:42;29.70;1.00
19242;DHT22;9755;47.790;9.620;2023-06-14T10:52:11;30.90;1.00
19242;DHT22;9755;47.790;9.620;2023-06-14T10:55:00;29.70;1.00
19242;DHT22;9755;47.790;9.620;2023-06-14T10:57:31;30.20;1.00
19242;DHT22;9755;47.790;9.620;2023-06-14T10:59:58;30.00;1.00
19242;DHT22;9755;47.790;9.620;2023-06-14T11:02:58;30.40;1.00
19242;DHT22;9755;47.790;9.620;2023-06-14T11:05:48;30.80;1.00
19242;DHT22;9755;47.790;9.620;2023-06-14T11:11:17;31.70;1.00
19242;DHT22;9755;47.790;9.620;2023-06-14T11:13:46;32.40;1.00
19242;DHT22;9755;47.790;9.620;2023-06-14T11:16:15;32.20;1.00
19242;DHT22;9755;47.790;9.620;2023-06-14T11:18:42;31.70;1.00
19242;DHT22;9755;47.790;9.620;2023-06-14T11:21:10;31.70;1.00
19242;DHT22;9755;47.790;9.620;2023-06-14T11:23:37;31.80;1.00
19242;DHT22;9755;47.790;9.620;2023-06-14T11:26:04;32.20;1.00
19242;DHT22;9755;47.790;9.620;2023-06-14T11:28:36;31.60;1.00
19242;DHT22;9755;47.790;9.620;2023-06-14T11:31:05;31.70;1.00
19242;DHT22;9755;47.790;9.620;2023-06-14T11:33:33;31.30;1.00
19242;DHT22;9755;47.790;9.620;2023-06-14T11:36:02;30.90;1.00
19242;DHT22;9755;47.790;9.620;2023-06-14T11:38:29;30.80;1.00
19242;DHT22;9755;47.790;9.620;2023-06-14T11:40:59;30.80;1.00
19242;DHT22;9755;47.790;9.620;2023-06-14T11:43:26;32.40;1.00
19242;DHT22;9755;47.790;9.620;2023-06-14T11:45:54;33.10;1.00
19242;DHT22;9755;47.790;9.620;2023-06-14T11:48:23;32.70;1.00
19242;DHT22;9755;47.790;9.620;2023-06-14T11:50:50;32.20;1.00
19242;DHT22;9755;47.790;9.620;2023-06-14T11:53:18;31.80;1.00
19242;DHT22;9755;47.790;9.620;2023-06-14T11:55:45;31.00;1.00
19242;DHT22;9755;47.790;9.620;2023-06-14T11:58:13;31.80;1.00
19242;DHT22;9755;47.790;9.620;2023-06-14T12:00:41;32.10;1.00
19242;DHT22;9755;47.790;9.620;2023-06-14T12:03:09;32.80;1.00
19242;DHT22;9755;47.790;9.620;2023-06-14T12:05:37;31.90;1.00
19242;DHT22;9755;47.790;9.620;2023-06-14T12:08:04;30.40;1.00
19242;DHT22;9755;47.790;9.620;2023-06-14T12:10:40;28.80;1.00
19242;DHT22;9755;47.790;9.620;2023-06-14T12:13:09;28.20;1.00
19242;DHT22;9755;47.790;9.620;2023-06-14T12:15:36;28.10;1.00
19242;DHT22;9755;47.790;9.620;2023-06-14T12:18:06;29.10;1.00
19242;DHT22;9755;47.790;9.620;2023-06-14T12:20:33;29.20;1.00
19242;DHT22;9755;47.790;9.620;2023-06-14T12:23:04;30.20;1.00
19242;DHT22;9755;47.790;9.620;2023-06-14T12:25:33;31.20;1.00
19242;DHT22;9755;47.790;9.620;2023-06-14T12:28:05;30.70;1.00
19242;DHT22;9755;47.790;9.620;2023-06-14T12:30:32;30.90;1.00
19242;DHT22;9755;47.790;9.620;2023-06-14T12:33:01;30.90;1.00
19242;DHT22;9755;47.790;9.620;2023-06-14T12:35:28;31.30;1.00
19242;DHT22;9755;47.790;9.620;2023-06-14T12:37:55;30.50;1.00
19242;DHT22;9755;47.790;9.620;2023-06-14T12:40:24;29.80;1.00
19242;DHT22;9755;47.790;9.620;2023-06-14T12:42:52;29.70;1.00
19242;DHT22;9755;47.790;9.620;2023-06-14T12:45:19;29.20;1.00
19242;DHT22;9755;47.790;9.620;2023-06-14T12:47:46;28.50;1.00
19242;DHT22;9755;47.790;9.620;2023-06-14T12:50:13;28.50;1.00
19242;DHT22;9755;47.790;9.620;2023-06-14T12:52:40;29.10;1.00
19242;DHT22;9755;47.790;9.620;2023-06-14T12:55:07;29.10;1.00
19242;DHT22;9755;47.790;9.620;2023-06-14T12:57:36;29.20;1.00
19242;DHT22;9755;47.790;9.620;2023-06-14T13:00:04;30.70;1.00
19242;DHT22;9755;47.790;9.620;2023-06-14T13:02:33;30.10;1.00
19242;DHT22;9755;47.790;9.620;2023-06-14T13:05:00;30.40;1.00
19242;DHT22;9755;47.790;9.620;2023-06-14T13:07:29;30.70;1.00
19242;DHT22;9755;47.790;9.620;2023-06-14T13:09:56;30.80;1.00
19242;DHT22;9755;47.790;9.620;2023-06-14T13:12:23;31.10;1.00
19242;DHT22;9755;47.790;9.620;2023-06-14T13:14:52;30.40;1.00
19242;DHT22;9755;47.790;9.620;2023-06-14T13:17:19;30.50;1.00
19242;DHT22;9755;47.790;9.620;2023-06-14T13:19:46;29.80;1.00
19242;DHT22;9755;47.790;9.620;2023-06-14T13:22:13;30.20;1.00
19242;DHT22;9755;47.790;9.620;2023-06-14T13:24:40;30.60;1.00
19242;DHT22;9755;47.790;9.620;2023-06-14T13:27:07;31.00;1.00
19242;DHT22;9755;47.790;9.620;2023-06-14T13:29:34;30.80;1.00
19242;DHT22;9755;47.790;9.620;2023-06-14T13:32:04;30.40;1.00
19242;DHT22;9755;47.790;9.620;2023-06-14T13:34:32;30.20;1.00
19242;DHT22;9755;47.790;9.620;2023-06-14T13:36:59;30.80;1.00
19242;DHT22;9755;47.790;9.620;2023-06-14T13:39:26;31.10;1.00
19242;DHT22;9755;47.790;9.620;2023-06-14T13:41:53;31.10;1.00
19242;DHT22;9755;47.790;9.620;2023-06-14T13:44:20;30.60;1.00
19242;DHT22;9755;47.790;9.620;2023-06-14T13:46:47;30.80;1.00
19242;DHT22;9755;47.790;9.620;2023-06-14T13:49:16;30.30;1.00
19242;DHT22;9755;47.790;9.620;2023-06-14T13:51:43;30.20;1.00
19242;DHT22;9755;47.790;9.620;2023-06-14T13:54:12;29.80;1.00
19242;DHT22;9755;47.790;9.620;2023-06-14T13:56:40;29.70;1.00
19242;DHT22;9755;47.790;9.620;2023-06-14T13:59:07;28.40;1.00
19242;DHT22;9755;47.790;9.620;2023-06-14T14:01:35;29.50;1.00
19242;DHT22;9755;47.790;9.620;2023-06-14T14:04:02;30.20;1.00
19242;DHT22;9755;47.790;9.620;2023-06-14T14:06:30;30.40;1.00
19242;DHT22;9755;47.790;9.620;2023-06-14T14:08:57;30.30;1.00
19242;DHT22;9755;47.790;9.620;2023-06-14T14:11:25;30.30;1.00
19242;DHT22;9755;47.790;9.620;2023-06-14T14:13:53;30.00;1.00
19242;DHT22;9755;47.790;9.620;2023-06-14T14:16:20;29.90;1.00
19242;DHT22;9755;47.790;9.620;2023-06-14T14:18:47;30.00;1.00
19242;DHT22;9755;47.790;9.620;2023-06-14T14:21:14;30.50;1.00
19242;DHT22;9755;47.790;9.620;2023-06-14T14:23:43;30.20;1.00
19242;DHT22;9755;47.790;9.620;2023-06-14T14:26:11;29.90;1.00
19242;DHT22;9755;47.790;9.620;2023-06-14T14:28:38;29.70;1.00
19242;DHT22;9755;47.790;9.620;2023-06-14T14:31:05;29.50;1.00
19242;DHT22;9755;47.790;9.620;2023-06-14T14:33:32;28.60;1.00
19242;DHT22;9755;47.790;9.620;2023-06-14T14:36:00;28.90;1.00
19242;DHT22;9755;47.790;9.620;2023-06-14T14:38:29;28.90;1.00
19242;DHT22;9755;47.790;9.620;2023-06-14T14:40:58;28.70;1.00
19242;DHT22;9755;47.790;9.620;2023-06-14T14:43:25;28.70;1.00
19242;DHT22;9755;47.790;9.620;2023-06-14T14:45:52;28.10;1.00
19242;DHT22;9755;47.790;9.620;2023-06-14T14:48:19;28.20;1.00
19242;DHT22;9755;47.790;9.620;2023-06-14T14:50:46;28.50;1.00
19242;DHT22;9755;47.790;9.620;2023-06-14T14:53:13;28.90;1.00
19242;DHT22;9755;47.790;9.620;2023-06-14T14:55:42;29.10;1.00
19242;DHT22;9755;47.790;9.620;2023-06-14T14:58:12;29.00;1.00
19242;DHT22;9755;47.790;9.620;2023-06-14T15:00:39;29.20;1.00
19242;DHT22;9755;47.790;9.620;2023-06-14T15:03:06;29.40;1.00
19242;DHT22;9755;47.790;9.620;2023-06-14T15:05:33;30.00;1.00
19242;DHT22;9755;47.790;9.620;2023-06-14T15:08:00;30.00;1.00
19242;DHT22;9755;47.790;9.620;2023-06-14T15:10:27;29.60;1.00
19242;DHT22;9755;47.790;9.620;2023-06-14T15:12:55;29.30;1.00
19242;DHT22;9755;47.790;9.620;2023-06-14T15:15:23;28.60;1.00
19242;DHT22;9755;47.790;9.620;2023-06-14T15:17:50;28.60;1.00
19242;DHT22;9755;47.790;9.620;2023-06-14T15:20:17;28.70;1.00
19242;DHT22;9755;47.790;9.620;2023-06-14T15:22:44;28.80;1.00
19242;DHT22;9755;47.790;9.620;2023-06-14T15:25:11;28.90;1.00
19242;DHT22;9755;47.790;9.620;2023-06-14T15:27:38;28.20;1.00
19242;DHT22;9755;47.790;9.620;2023-06-14T15:30:07;28.50;1.00
19242;DHT22;9755;47.790;9.620;2023-06-14T15:32:35;28.70;1.00
19242;DHT22;9755;47.790;9.620;2023-06-14T15:35:03;27.70;1.00
19242;DHT22;9755;47.790;9.620;2023-06-14T15:37:30;27.50;1.00
19242;DHT22;9755;47.790;9.620;2023-06-14T15:39:57;28.10;1.00
19242;DHT22;9755;47.790;9.620;2023-06-14T15:42:24;28.00;1.00
19242;DHT22;9755;47.790;9.620;2023-06-14T15:44:51;28.30;1.00
19242;DHT22;9755;47.790;9.620;2023-06-14T15:47:18;27.70;1.00
19242;DHT22;9755;47.790;9.620;2023-06-14T15:49:47;27.90;1.00
19242;DHT22;9755;47.790;9.620;2023-06-14T15:52:14;28.20;1.00
19242;DHT22;9755;47.790;9.620;2023-06-14T15:54:41;28.50;1.00
19242;DHT22;9755;47.790;9.620;2023-06-14T15:57:08;28.40;1.00
19242;DHT22;9755;47.790;9.620;2023-06-14T15:59:35;28.30;1.00
19242;DHT22;9755;47.790;9.620;2023-06-14T16:02:02;28.00;1.00
19242;DHT22;9755;47.790;9.620;2023-06-14T16:04:29;28.00;1.00
19242;DHT22;9755;47.790;9.620;2023-06-14T16:06:58;28.10;1.00
19242;DHT22;9755;47.790;9.620;2023-06-14T16:09:25;28.40;1.00
19242;DHT22;9755;47.790;9.620;2023-06-14T16:11:52;28.10;1.00